Impacts METAR Board
IDs:

KDEN - Denver Intl, CO, US

Updated at: 1000 UTC 30 Oct 2020
Potential Impact None Slight Moderate High
Time 29/22Z 29/23Z 30/00Z 30/01Z 30/02Z 30/03Z 30/04Z 30/05Z 30/06Z 30/07Z 30/08Z 30/09Z 30/10Z
Temp68 67 56 50 50 45 44 42 40 41 41 42 42
Dewpt27 27 36 39 39 37 36 34 34 35 31 29 28
Altim30.12 30.13 30.13 30.15 30.17 30.19 30.20 30.22 30.22 30.22 30.22 30.21 30.21
VIS10 10 10 10 10 10 10 10 9 10 10 10 10
CIG-- -- -- -- -- -- -- -- -- -- -- -- --
CoverFEWFEWCLRCLRCLRCLRCLRCLRCLRCLRCLRCLRCLR
FltCatVFRVFRVFRVFRVFRVFRVFRVFRVFRVFRVFRVFRVFR
WX--------------------------
WDir00404060230250260250220210220210
WSpd0 0 7 8 4 4 5 3 7 7 10 9 12
WGst-- -- -- -- -- -- -- -- -- -- -- -- --
Raw hourly METARs
KDEN 292153Z 00000KT 10SM FEW100 20/M03 A3012 RMK AO2 SLP163 T02001028
KDEN 292253Z 00000KT 10SM FEW100 19/M03 A3013 RMK AO2 SLP171 T01941028
KDEN 292353Z 04007KT 10SM CLR 13/02 A3013 RMK AO2 SLP179 T01330022 10200 20133 50003
KDEN 300053Z 04008KT 10SM CLR 10/04 A3015 RMK AO2 SLP194 T01000039
KDEN 300153Z 06004KT 10SM CLR 10/04 A3017 RMK AO2 SLP200 T01000039
KDEN 300253Z 23004KT 10SM CLR 07/03 A3019 RMK AO2 SLP203 T00720028 51016
KDEN 300353Z 25005KT 10SM CLR 07/02 A3020 RMK AO2 SLP202 T00670022
KDEN 300453Z 26003KT 10SM CLR 06/01 A3022 RMK AO2 SLP203 T00560011
KDEN 300553Z 25007KT 9SM CLR 04/01 A3022 RMK AO2 SLP200 T00440011 10128 20044 51010
KDEN 300653Z 22007KT 10SM CLR 05/02 A3022 RMK AO2 SLP193 T00500017 402000000
KDEN 300753Z 21010KT 10SM CLR 05/M01 A3022 RMK AO2 SLP192 T00501006
KDEN 300853Z 22009KT 10SM CLR 06/M02 A3021 RMK AO2 SLP187 T00561017 58003
KDEN 300953Z 21012KT 10SM CLR 06/M02 A3021 RMK AO2 SLP187 T00561022



Page loaded:  10:51 UTC  |   03:51 AM Pacific  |   04:51 AM Mountain  |   05:51 AM Central  |   06:51 AM Eastern

 

ADVISORIES

FORECASTS

FORECASTS

OBSERVATIONS

USER TOOLS

ABOUT US